createdAt,value
2019-05-17T00:00:37.120Z,63.83
2019-05-17T00:01:34.088Z,63.83
2019-05-17T00:02:34.012Z,63.54
2019-05-17T00:03:33.926Z,63.35
2019-05-17T00:04:36.263Z,63.54
2019-05-17T00:05:33.759Z,63.07
2019-05-17T00:06:33.682Z,63.54
2019-05-17T00:07:33.598Z,63.07
2019-05-17T00:08:34.957Z,63.26
2019-05-17T00:09:33.431Z,63.92
2019-05-17T00:10:33.351Z,63.73
2019-05-17T00:11:33.265Z,63.26
2019-05-17T00:12:33.185Z,63.64
2019-05-17T00:13:33.108Z,63.54
2019-05-17T00:14:33.020Z,63.64
2019-05-17T00:15:32.938Z,64.78
2019-05-17T00:16:32.859Z,64.59
2019-05-17T00:17:32.775Z,64.78
2019-05-17T00:18:32.692Z,65.16
2019-05-17T00:19:32.615Z,65.16
2019-05-17T00:20:32.527Z,65.16
2019-05-17T00:21:32.446Z,65.26
2019-05-17T00:22:32.363Z,65.73
2019-05-17T00:23:32.281Z,65.36
2019-05-17T00:24:32.200Z,65.36
2019-05-17T00:25:32.120Z,65.16
2019-05-17T00:26:32.036Z,64.97
2019-05-17T00:27:31.953Z,64.59
2019-05-17T00:28:31.871Z,64.78
2019-05-17T00:29:31.790Z,65.16
2019-05-17T00:30:31.710Z,65.45
2019-05-17T00:31:31.619Z,65.83
2019-05-17T00:32:31.546Z,66.02
2019-05-17T00:33:31.459Z,65.83
2019-05-17T00:34:31.376Z,66.31
2019-05-17T00:35:31.301Z,66.21
2019-05-17T00:36:31.208Z,66.11
2019-05-17T00:37:31.135Z,66.40
2019-05-17T00:38:31.055Z,66.40
2019-05-17T00:39:30.972Z,66.02
2019-05-17T00:40:30.886Z,66.21
2019-05-17T00:41:30.806Z,66.97
2019-05-17T00:42:30.722Z,67.26
2019-05-17T00:43:30.637Z,66.88
2019-05-17T00:44:30.570Z,66.50
2019-05-17T00:45:30.479Z,66.88
2019-05-17T00:46:30.393Z,67.07
2019-05-17T00:47:30.312Z,66.40
2019-05-17T00:48:30.232Z,66.21
2019-05-17T00:49:30.146Z,66.78
2019-05-17T00:50:30.065Z,67.26
2019-05-17T00:51:29.981Z,67.26
2019-05-17T00:52:29.903Z,66.78
2019-05-17T00:53:29.813Z,66.31
2019-05-17T00:54:29.739Z,66.97
2019-05-17T00:55:29.653Z,67.07
2019-05-17T00:56:29.572Z,67.07
2019-05-17T00:57:29.488Z,66.97
2019-05-17T00:58:29.408Z,66.97
2019-05-17T00:59:29.323Z,67.45
2019-05-17T01:00:29.243Z,67.35
2019-05-17T01:01:29.163Z,67.64
2019-05-17T01:02:29.076Z,67.64
2019-05-17T01:03:28.995Z,68.40
2019-05-17T01:04:28.921Z,68.78
2019-05-17T01:05:28.830Z,68.88
2019-05-17T01:06:28.748Z,69.93
2019-05-17T01:07:28.668Z,70.40
2019-05-17T01:08:28.589Z,70.40
2019-05-17T01:09:28.500Z,70.31
2019-05-17T01:10:28.422Z,70.50
2019-05-17T01:11:28.337Z,70.50
2019-05-17T01:12:28.257Z,71.45
2019-05-17T01:13:28.174Z,71.45
2019-05-17T01:14:28.090Z,71.45
2019-05-17T01:15:28.006Z,71.36
2019-05-17T01:16:27.934Z,72.17
2019-05-17T01:17:27.845Z,72.46
2019-05-17T01:18:27.786Z,72.41
2019-05-17T01:19:27.676Z,71.70
2019-05-17T01:20:27.806Z,72.56
2019-05-17T01:21:27.514Z,72.37
2019-05-17T01:22:27.429Z,72.65
2019-05-17T01:23:27.350Z,72.85
2019-05-17T01:24:27.500Z,72.85
2019-05-17T01:25:27.358Z,73.51
2019-05-17T01:26:27.101Z,73.80
2019-05-17T01:27:27.021Z,74.65
2019-05-17T01:28:27.095Z,74.56
2019-05-17T01:29:26.937Z,74.94
2019-05-17T01:30:26.772Z,74.56
2019-05-17T01:31:26.695Z,75.23
2019-05-17T01:32:26.731Z,75.60
2019-05-17T01:33:26.642Z,75.13
2019-05-17T01:34:27.248Z,74.65
2019-05-17T01:35:26.787Z,74.84
2019-05-17T01:36:26.464Z,74.75
2019-05-17T01:37:27.688Z,74.56
2019-05-17T01:38:26.962Z,74.56
2019-05-17T01:39:26.887Z,74.65
2019-05-17T01:40:26.424Z,75.23
2019-05-17T01:41:26.674Z,75.51
2019-05-17T01:42:26.491Z,75.04
2019-05-17T01:43:27.340Z,74.75
2019-05-17T01:44:27.240Z,74.65
2019-05-17T01:45:26.933Z,74.65
2019-05-17T01:46:26.538Z,74.08
2019-05-17T01:47:27.265Z,74.27
2019-05-17T01:48:27.074Z,74.56
2019-05-17T01:49:27.083Z,75.32
2019-05-17T01:50:26.654Z,74.37
2019-05-17T01:51:26.331Z,73.80
2019-05-17T01:52:27.177Z,73.99
2019-05-17T01:53:26.895Z,73.51
2019-05-17T01:54:26.768Z,73.32
2019-05-17T01:55:26.555Z,73.51
2019-05-17T01:56:26.283Z,73.89
2019-05-17T01:57:24.540Z,73.41
2019-05-17T01:58:26.900Z,73.41
2019-05-17T01:59:26.622Z,74.18
2019-05-17T02:00:26.431Z,73.61
2019-05-17T02:01:24.210Z,74.65
2019-05-17T02:02:24.127Z,73.51
2019-05-17T02:03:24.045Z,73.89
2019-05-17T02:04:23.962Z,73.99
2019-05-17T02:05:23.874Z,73.51
2019-05-17T02:06:23.799Z,74.08
2019-05-17T02:07:23.716Z,73.41
2019-05-17T02:08:23.632Z,73.61
2019-05-17T02:09:34.779Z,73.61
2019-05-17T02:10:23.463Z,73.51
2019-05-17T02:11:23.382Z,73.32
2019-05-17T02:12:23.295Z,72.65
2019-05-17T02:13:23.218Z,72.94
2019-05-17T02:14:23.133Z,72.46
2019-05-17T02:15:23.047Z,72.75
2019-05-17T02:16:22.971Z,71.61
2019-05-17T02:17:22.892Z,72.46
2019-05-17T02:18:22.804Z,71.42
2019-05-17T02:19:22.719Z,71.32
2019-05-17T02:20:22.638Z,71.13
2019-05-17T02:21:22.554Z,70.75
2019-05-17T02:22:22.473Z,72.17
2019-05-17T02:23:22.395Z,72.08
2019-05-17T02:24:22.308Z,72.08
2019-05-17T02:25:22.223Z,71.89
2019-05-17T02:26:22.142Z,72.08
2019-05-17T02:27:25.202Z,71.98
2019-05-17T02:28:21.975Z,72.08
2019-05-17T02:29:21.890Z,71.80
2019-05-17T02:30:23.289Z,73.51
2019-05-17T02:31:24.564Z,74.18
2019-05-17T02:32:23.478Z,74.08
2019-05-17T02:33:23.572Z,74.62
2019-05-17T02:34:23.262Z,74.33
2019-05-17T02:35:23.155Z,75.09
2019-05-17T02:36:22.835Z,75.85
2019-05-17T02:37:23.164Z,74.80
2019-05-17T02:38:22.489Z,75.09
2019-05-17T02:39:23.232Z,74.90
2019-05-17T02:40:22.675Z,74.90
2019-05-17T02:41:22.720Z,74.80
2019-05-17T02:42:22.416Z,74.62
2019-05-17T02:43:23.370Z,73.85
2019-05-17T02:44:23.329Z,74.52
2019-05-17T02:45:23.213Z,74.62
2019-05-17T02:46:28.134Z,73.57
2019-05-17T02:48:25.793Z,73.38
2019-05-17T02:49:25.693Z,73.47
2019-05-17T02:51:32.368Z,73.00
2019-05-17T02:52:32.822Z,72.90
2019-05-17T02:54:35.192Z,73.76
2019-05-17T02:55:35.109Z,73.95
2019-05-17T02:56:35.020Z,73.85
2019-05-17T02:57:34.975Z,74.90
2019-05-17T02:58:34.858Z,73.47
2019-05-17T02:59:34.780Z,74.52
2019-05-17T03:00:34.688Z,73.95
2019-05-17T03:01:34.607Z,74.43
2019-05-17T03:02:34.524Z,74.52
2019-05-17T03:03:34.441Z,74.52
2019-05-17T03:04:34.362Z,74.90
2019-05-17T03:05:34.293Z,73.57
2019-05-17T03:06:34.195Z,73.85
2019-05-17T03:07:34.108Z,74.48
2019-05-17T03:08:34.511Z,73.38
2019-05-17T03:09:34.044Z,73.76
2019-05-17T03:10:34.161Z,73.85
2019-05-17T03:11:33.772Z,73.66
2019-05-17T03:12:33.692Z,73.57
2019-05-17T03:13:33.611Z,73.28
2019-05-17T03:14:33.541Z,73.57
2019-05-17T03:15:33.473Z,73.95
2019-05-17T03:16:33.971Z,75.47
2019-05-17T03:17:34.102Z,76.23
2019-05-17T03:18:33.713Z,76.42
2019-05-17T03:19:33.225Z,76.14
2019-05-17T03:20:33.238Z,77.00
2019-05-17T03:21:33.784Z,76.42
2019-05-17T03:22:33.354Z,77.00
2019-05-17T03:23:33.047Z,77.09
2019-05-17T03:24:33.384Z,76.81
2019-05-17T03:25:33.726Z,77.00
2019-05-17T03:26:32.929Z,76.42
2019-05-17T03:27:33.641Z,76.33
2019-05-17T03:28:33.681Z,76.42
2019-05-17T03:29:33.523Z,77.28
2019-05-17T03:30:36.757Z,78.04
2019-05-17T03:31:41.576Z,77.76
2019-05-17T03:32:36.086Z,78.04
2019-05-17T03:33:36.039Z,79.19
2019-05-17T03:34:36.875Z,79.85
2019-05-17T03:35:37.682Z,80.61
2019-05-17T03:36:36.082Z,81.28
2019-05-17T03:37:37.276Z,83.37
2019-05-17T03:38:32.499Z,82.04
2019-05-17T03:39:33.274Z,81.47
2019-05-17T03:41:01.411Z,81.85
2019-05-17T03:41:34.089Z,81.95
2019-05-17T03:42:33.077Z,82.80
2019-05-17T03:43:34.853Z,82.80
2019-05-17T03:44:33.258Z,83.18
2019-05-17T03:45:33.870Z,82.32
2019-05-17T03:46:33.430Z,82.23
2019-05-17T03:47:33.517Z,84.23
2019-05-17T03:48:33.344Z,84.28
2019-05-17T03:49:33.104Z,83.23
2019-05-17T03:50:33.465Z,81.43
2019-05-17T03:51:33.218Z,80.47
2019-05-17T03:52:33.102Z,80.29
2019-05-17T03:53:33.163Z,79.62
2019-05-17T03:54:32.459Z,77.05
2019-05-17T03:55:33.114Z,76.48
2019-05-17T03:56:32.717Z,75.81
2019-05-17T03:57:32.204Z,75.81
2019-05-17T03:58:32.997Z,75.34
2019-05-17T03:59:29.773Z,75.05
2019-05-17T04:00:29.688Z,75.85
2019-05-17T04:01:32.600Z,76.61
2019-05-17T04:02:32.460Z,76.33
2019-05-17T04:03:32.361Z,75.85
2019-05-17T04:04:29.353Z,75.85
2019-05-17T04:05:29.273Z,75.95
2019-05-17T04:06:29.193Z,77.00
2019-05-17T04:07:29.723Z,77.37
2019-05-17T04:08:29.030Z,77.37
2019-05-17T04:09:28.944Z,77.56
2019-05-17T04:10:28.857Z,76.90
2019-05-17T04:11:32.924Z,77.00
2019-05-17T04:12:28.688Z,77.76
2019-05-17T04:13:28.604Z,77.76
2019-05-17T04:14:28.521Z,78.42
2019-05-17T04:15:28.438Z,77.76
2019-05-17T04:16:28.355Z,77.56
2019-05-17T04:17:28.269Z,77.76
2019-05-17T04:18:28.195Z,78.90
2019-05-17T04:19:28.101Z,79.28
2019-05-17T04:20:28.028Z,78.99
2019-05-17T04:21:27.932Z,79.57
2019-05-17T04:22:27.855Z,80.33
2019-05-17T04:23:27.768Z,81.76
2019-05-17T04:24:27.687Z,83.28
2019-05-17T04:25:27.606Z,82.90
2019-05-17T04:26:27.521Z,83.37
2019-05-17T04:27:27.438Z,83.65
2019-05-17T04:28:27.354Z,83.37
2019-05-17T04:29:27.278Z,82.61
2019-05-17T04:30:27.194Z,83.47
2019-05-17T04:31:30.490Z,83.56
2019-05-17T04:32:27.014Z,83.18
2019-05-17T04:33:26.937Z,83.56
2019-05-17T04:34:26.852Z,83.85
2019-05-17T04:35:26.770Z,82.90
2019-05-17T04:36:26.691Z,82.23
2019-05-17T04:37:26.602Z,81.85
2019-05-17T04:38:26.522Z,82.23
2019-05-17T04:39:26.441Z,82.42
2019-05-17T04:40:26.357Z,82.99
2019-05-17T04:41:39.687Z,82.99
2019-05-17T04:42:26.186Z,83.56
2019-05-17T04:43:26.102Z,84.13
2019-05-17T04:44:26.021Z,83.37
2019-05-17T04:45:25.942Z,82.90
2019-05-17T04:46:25.854Z,83.75
2019-05-17T04:47:25.770Z,83.56
2019-05-17T04:48:25.683Z,84.61
2019-05-17T04:49:25.605Z,84.33
2019-05-17T04:50:25.523Z,84.99
2019-05-17T04:51:25.436Z,86.22
2019-05-17T04:52:25.356Z,86.51
2019-05-17T04:53:25.279Z,88.04
2019-05-17T04:54:25.196Z,89.56
2019-05-17T04:55:25.105Z,89.18
2019-05-17T04:56:25.016Z,88.13
2019-05-17T04:57:24.941Z,88.04
2019-05-17T04:58:24.856Z,87.56
2019-05-17T04:59:24.771Z,88.32
2019-05-17T05:00:24.691Z,88.79
2019-05-17T05:01:24.610Z,87.85
2019-05-17T05:02:24.526Z,87.65
2019-05-17T05:03:24.440Z,87.27
2019-05-17T05:04:24.360Z,87.75
2019-05-17T05:05:24.274Z,88.99
2019-05-17T05:06:24.192Z,88.79
2019-05-17T05:07:24.110Z,88.42
2019-05-17T05:08:24.029Z,88.46
2019-05-17T05:09:23.945Z,88.56
2019-05-17T05:10:23.855Z,88.89
2019-05-17T05:11:23.778Z,88.32
2019-05-17T05:12:23.689Z,88.56
2019-05-17T05:13:23.689Z,87.60
2019-05-17T05:14:23.525Z,87.37
2019-05-17T05:15:23.453Z,86.55
2019-05-17T05:16:23.386Z,85.99
2019-05-17T05:17:23.278Z,86.75
2019-05-17T05:18:23.197Z,86.27
2019-05-17T05:19:23.120Z,85.70
2019-05-17T05:20:23.038Z,87.51
2019-05-17T05:21:23.219Z,86.65
2019-05-17T05:22:22.863Z,86.36
2019-05-17T05:23:23.936Z,85.51
2019-05-17T05:24:22.702Z,85.60
2019-05-17T05:25:22.618Z,85.80
2019-05-17T05:26:22.535Z,85.41
2019-05-17T05:27:22.451Z,85.70
2019-05-17T05:28:22.618Z,86.55
2019-05-17T05:29:22.286Z,86.46
2019-05-17T05:30:22.521Z,86.36
2019-05-17T05:31:22.769Z,86.18
2019-05-17T05:32:22.140Z,85.99
2019-05-17T05:33:22.292Z,85.99
2019-05-17T05:34:21.928Z,85.80
2019-05-17T05:35:22.465Z,85.60
2019-05-17T05:36:22.133Z,85.13
2019-05-17T05:37:23.199Z,85.13
2019-05-17T05:38:21.775Z,85.70
2019-05-17T05:39:22.844Z,86.18
2019-05-17T05:40:21.462Z,85.60
2019-05-17T05:41:22.557Z,85.80
2019-05-17T05:42:22.088Z,86.27
2019-05-17T05:43:22.563Z,85.89
2019-05-17T05:44:21.504Z,86.65
2019-05-17T05:45:22.482Z,85.99
2019-05-17T05:46:22.368Z,85.99
2019-05-17T05:47:22.183Z,85.41
2019-05-17T05:48:21.746Z,84.27
2019-05-17T05:49:21.692Z,84.75
2019-05-17T05:50:21.866Z,84.75
2019-05-17T05:51:21.663Z,83.80
2019-05-17T05:52:21.858Z,84.50
2019-05-17T05:53:21.826Z,84.79
2019-05-17T05:54:22.406Z,84.79
2019-05-17T05:55:23.163Z,84.12
2019-05-17T05:56:21.967Z,84.50
2019-05-17T05:57:21.841Z,84.31
2019-05-17T05:58:19.899Z,85.46
2019-05-17T05:59:22.306Z,85.36
2019-05-17T06:00:21.953Z,86.03
2019-05-17T06:01:21.850Z,85.93
2019-05-17T06:02:21.703Z,85.17
2019-05-17T06:03:19.494Z,85.55
2019-05-17T06:04:19.406Z,86.03
2019-05-17T06:05:21.783Z,86.12
2019-05-17T06:06:21.407Z,85.84
2019-05-17T06:07:21.451Z,84.79
2019-05-17T06:08:19.079Z,84.31
2019-05-17T06:09:18.999Z,84.50
2019-05-17T06:10:18.914Z,83.93
2019-05-17T06:11:18.829Z,84.03
2019-05-17T06:12:23.628Z,83.65
2019-05-17T06:13:18.671Z,83.36
2019-05-17T06:14:18.585Z,83.07
2019-05-17T06:15:18.500Z,82.69
2019-05-17T06:16:18.417Z,82.31
2019-05-17T06:17:18.338Z,82.03
2019-05-17T06:18:18.258Z,81.55
2019-05-17T06:19:18.173Z,80.50
2019-05-17T06:20:18.088Z,80.60
2019-05-17T06:21:18.011Z,81.07
2019-05-17T06:22:17.934Z,82.60
2019-05-17T06:23:17.844Z,81.84
2019-05-17T06:24:17.765Z,82.21
2019-05-17T06:25:17.682Z,81.84
2019-05-17T06:26:18.209Z,81.36
2019-05-17T06:27:17.520Z,81.26
2019-05-17T06:28:17.444Z,80.79
2019-05-17T06:29:17.356Z,80.88
2019-05-17T06:30:17.273Z,81.36
2019-05-17T06:31:17.188Z,81.26
2019-05-17T06:32:17.102Z,80.79
2019-05-17T06:33:28.025Z,81.36
2019-05-17T06:34:16.948Z,81.07
2019-05-17T06:35:16.859Z,81.26
2019-05-17T06:36:16.779Z,81.55
2019-05-17T06:37:16.773Z,81.46
2019-05-17T06:38:16.617Z,81.07
2019-05-17T06:39:16.534Z,80.69
2019-05-17T06:40:16.451Z,80.69
2019-05-17T06:41:16.369Z,80.12
2019-05-17T06:42:16.290Z,80.41
2019-05-17T06:43:16.209Z,79.93
2019-05-17T06:44:16.122Z,79.83
2019-05-17T06:45:16.042Z,79.27
2019-05-17T06:46:15.957Z,78.41
2019-05-17T06:47:15.878Z,78.31
2019-05-17T06:48:15.798Z,78.03
2019-05-17T06:49:15.714Z,76.31
2019-05-17T06:50:15.659Z,77.40
2019-05-17T06:51:15.550Z,77.40
2019-05-17T06:52:15.466Z,76.64
2019-05-17T06:53:15.395Z,76.82
2019-05-17T06:54:15.303Z,76.92
2019-05-17T06:55:15.224Z,75.68
2019-05-17T06:56:15.141Z,80.92
2019-05-17T06:57:15.066Z,79.46
2019-05-17T06:58:14.981Z,79.40
2019-05-17T06:59:14.904Z,79.68
2019-05-17T07:00:20.718Z,79.11
2019-05-17T07:01:14.736Z,78.35
2019-05-17T07:02:14.664Z,78.64
2019-05-17T07:03:14.570Z,78.54
2019-05-17T07:04:14.488Z,79.68
2019-05-17T07:05:14.410Z,79.02
2019-05-17T07:06:14.329Z,78.64
2019-05-17T07:07:14.246Z,78.64
2019-05-17T07:08:14.162Z,77.11
2019-05-17T07:09:14.094Z,78.64
2019-05-17T07:10:14.001Z,79.11
2019-05-17T07:11:13.920Z,79.11
2019-05-17T07:12:13.837Z,78.35
2019-05-17T07:13:13.763Z,79.11
2019-05-17T07:14:13.673Z,78.25
2019-05-17T07:15:13.594Z,78.25
2019-05-17T07:16:13.513Z,79.49
2019-05-17T07:17:13.429Z,79.30
2019-05-17T07:18:13.347Z,84.92
2019-05-17T07:19:13.267Z,88.36
2019-05-17T07:20:13.192Z,88.02
2019-05-17T07:21:13.101Z,87.35
2019-05-17T07:22:13.026Z,88.02
2019-05-17T07:23:12.948Z,88.02
2019-05-17T07:24:12.862Z,89.45
2019-05-17T07:25:12.778Z,88.50
2019-05-17T07:26:12.707Z,88.21
2019-05-17T07:27:12.618Z,89.64
2019-05-17T07:28:12.536Z,95.46
2019-05-17T07:29:12.456Z,95.56
2019-05-17T07:30:12.380Z,95.08
2019-05-17T07:31:12.311Z,96.13
2019-05-17T07:32:12.208Z,97.46
2019-05-17T07:33:12.135Z,96.98
2019-05-17T07:34:12.053Z,96.51
2019-05-17T07:35:11.971Z,95.37
2019-05-17T07:36:11.891Z,95.75
2019-05-17T07:37:11.804Z,97.66
2019-05-17T07:38:11.728Z,99.99
2019-05-17T07:39:11.642Z,99.99
2019-05-17T07:40:11.564Z,98.66
2019-05-17T07:41:11.483Z,98.47
2019-05-17T07:42:11.402Z,99.32
2019-05-17T07:43:14.734Z,98.56
2019-05-17T07:44:11.249Z,97.89
2019-05-17T07:45:11.172Z,96.84
2019-05-17T07:46:11.079Z,98.56
2019-05-17T07:47:10.998Z,99.99
2019-05-17T07:48:10.919Z,99.99
2019-05-17T07:49:11.085Z,99.99
2019-05-17T07:50:11.490Z,99.99
2019-05-17T07:51:10.677Z,99.99
2019-05-17T07:52:10.596Z,99.99
2019-05-17T07:53:10.621Z,99.99
2019-05-17T07:54:10.592Z,99.99
2019-05-17T07:55:11.071Z,99.99
2019-05-17T07:56:10.409Z,99.99
2019-05-17T07:57:10.442Z,99.99
2019-05-17T07:58:10.322Z,99.99
2019-05-17T07:59:10.028Z,99.99
2019-05-17T08:00:10.403Z,99.99
2019-05-17T08:01:10.140Z,99.99
2019-05-17T08:02:10.624Z,99.99
2019-05-17T08:03:12.605Z,99.99
2019-05-17T08:04:10.071Z,99.99
2019-05-17T08:05:10.081Z,99.99
2019-05-17T08:06:10.522Z,99.99
2019-05-17T08:07:10.697Z,99.99
2019-05-17T08:08:09.794Z,99.99
2019-05-17T08:09:13.929Z,99.99
2019-05-17T08:10:11.042Z,99.99
2019-05-17T08:11:10.660Z,99.99
2019-05-17T08:12:11.079Z,99.99
2019-05-17T08:13:25.115Z,99.99
2019-05-17T08:14:10.562Z,99.99
2019-05-17T08:15:10.766Z,99.99
2019-05-17T08:16:10.300Z,99.99
2019-05-17T08:17:10.217Z,99.99
2019-05-17T08:18:10.862Z,99.99
2019-05-17T08:19:09.741Z,99.99
2019-05-17T08:20:10.112Z,99.99
2019-05-17T08:21:10.171Z,99.99
2019-05-17T08:22:09.776Z,99.99
2019-05-17T08:23:10.227Z,99.99
2019-05-17T08:24:10.242Z,99.99
2019-05-17T08:25:10.136Z,99.99
2019-05-17T08:26:10.485Z,99.99
2019-05-17T08:27:07.774Z,99.99
2019-05-17T08:28:10.660Z,99.99
2019-05-17T08:29:09.834Z,99.99
2019-05-17T08:30:10.151Z,99.99
2019-05-17T08:31:09.758Z,99.99
2019-05-17T08:32:09.505Z,99.99
2019-05-17T08:33:07.295Z,99.99
2019-05-17T08:34:07.219Z,99.99
2019-05-17T08:35:07.134Z,99.99
2019-05-17T08:36:09.179Z,99.99
2019-05-17T08:37:09.381Z,99.99
2019-05-17T08:38:06.897Z,99.99
2019-05-17T08:39:06.813Z,99.99
2019-05-17T08:40:06.735Z,99.99
2019-05-17T08:41:06.660Z,99.99
2019-05-17T08:42:06.575Z,99.99
2019-05-17T08:43:06.494Z,99.99
2019-05-17T08:44:06.416Z,99.99
2019-05-17T08:45:06.336Z,99.99
2019-05-17T08:46:06.253Z,99.99
2019-05-17T08:47:06.176Z,99.99
2019-05-17T08:48:06.101Z,99.99
2019-05-17T08:49:06.015Z,99.99
2019-05-17T08:50:05.934Z,99.99
2019-05-17T08:51:05.862Z,99.99
2019-05-17T08:52:05.780Z,99.99
2019-05-17T08:53:05.695Z,99.99
2019-05-17T08:55:37.619Z,99.99
2019-05-17T08:56:40.019Z,99.99
2019-05-17T08:57:39.861Z,99.99
2019-05-17T08:58:37.362Z,99.99
2019-05-17T08:59:37.286Z,99.99
2019-05-17T09:00:40.154Z,99.99
2019-05-17T09:01:39.241Z,99.99
2019-05-17T09:02:37.054Z,99.99
2019-05-17T09:03:36.971Z,99.99
2019-05-17T09:04:36.893Z,99.99
2019-05-17T09:05:36.813Z,99.99
2019-05-17T09:06:36.735Z,99.99
2019-05-17T09:07:36.652Z,99.99
2019-05-17T09:08:36.569Z,99.99
2019-05-17T09:09:36.497Z,99.99
2019-05-17T09:10:36.411Z,99.99
2019-05-17T09:11:36.330Z,99.99
2019-05-17T09:12:36.259Z,99.99
2019-05-17T09:13:36.182Z,99.99
2019-05-17T09:14:36.101Z,99.99
2019-05-17T09:15:36.020Z,99.99
2019-05-17T09:16:35.943Z,99.99
2019-05-17T09:17:35.862Z,99.99
2019-05-17T09:18:35.782Z,99.99
2019-05-17T09:19:35.705Z,99.99
2019-05-17T09:20:35.631Z,99.99
2019-05-17T09:21:35.550Z,99.99
2019-05-17T09:22:35.474Z,99.99
2019-05-17T09:23:35.500Z,99.99
2019-05-17T09:24:35.315Z,99.99
2019-05-17T09:25:35.234Z,99.99
2019-05-17T09:26:35.153Z,99.99
2019-05-17T09:27:35.078Z,99.99
2019-05-17T09:28:34.995Z,99.99
2019-05-17T09:29:34.921Z,99.99
2019-05-17T09:30:34.856Z,99.99
2019-05-17T09:31:34.767Z,99.99
2019-05-17T09:32:34.684Z,99.99
2019-05-17T09:33:34.606Z,99.99
2019-05-17T09:34:34.530Z,99.99
2019-05-17T09:35:34.451Z,99.99
2019-05-17T09:36:34.370Z,99.99
2019-05-17T09:37:34.289Z,99.99
2019-05-17T09:38:34.215Z,99.99
2019-05-17T09:39:34.158Z,99.99
2019-05-17T09:40:34.055Z,99.99
2019-05-17T09:41:33.985Z,99.99
2019-05-17T09:42:33.914Z,99.99
2019-05-17T09:43:33.825Z,99.99
2019-05-17T09:44:33.745Z,99.99
2019-05-17T09:45:33.666Z,99.99
2019-05-17T09:46:33.586Z,99.99
2019-05-17T09:47:33.507Z,99.99
2019-05-17T09:48:33.431Z,99.99
2019-05-17T09:49:33.356Z,99.99
2019-05-17T09:50:33.277Z,99.99
2019-05-17T09:51:33.202Z,99.99
2019-05-17T09:52:33.115Z,99.99
2019-05-17T09:53:33.041Z,99.99
2019-05-17T09:54:44.649Z,99.99
2019-05-17T09:55:32.886Z,99.99
2019-05-17T09:56:32.805Z,99.99
2019-05-17T09:57:32.729Z,99.99
2019-05-17T09:58:32.649Z,99.99
2019-05-17T09:59:32.579Z,99.99
2019-05-17T10:00:32.503Z,99.99
2019-05-17T10:01:32.420Z,99.99
2019-05-17T10:02:32.342Z,99.99
2019-05-17T10:03:32.265Z,99.99
2019-05-17T10:04:32.187Z,99.99
2019-05-17T10:05:32.107Z,99.99
2019-05-17T10:06:32.028Z,99.99
2019-05-17T10:07:31.949Z,99.99
2019-05-17T10:08:31.871Z,99.99
2019-05-17T10:09:31.787Z,99.99
2019-05-17T10:10:31.713Z,99.99
2019-05-17T10:11:31.637Z,99.99
2019-05-17T10:12:31.558Z,99.99
2019-05-17T10:13:31.483Z,99.99
2019-05-17T10:14:31.556Z,99.99
2019-05-17T10:15:31.325Z,99.99
2019-05-17T10:16:31.249Z,99.99
2019-05-17T10:17:31.174Z,99.99
2019-05-17T10:18:31.090Z,99.99
2019-05-17T10:19:31.016Z,99.99
2019-05-17T10:20:30.947Z,99.99
2019-05-17T10:21:30.861Z,99.99
2019-05-17T10:22:30.781Z,99.99
2019-05-17T10:23:30.704Z,99.99
2019-05-17T10:24:38.127Z,99.99
2019-05-17T10:25:30.546Z,99.99
2019-05-17T10:26:30.565Z,99.99
2019-05-17T10:27:30.424Z,99.99
2019-05-17T10:28:30.315Z,99.99
2019-05-17T10:29:30.237Z,99.99
2019-05-17T10:30:30.159Z,99.99
2019-05-17T10:31:30.483Z,99.99
2019-05-17T10:32:30.907Z,99.99
2019-05-17T10:33:29.926Z,99.99
2019-05-17T10:34:29.858Z,99.99
2019-05-17T10:35:29.774Z,99.99
2019-05-17T10:36:29.695Z,99.99
2019-05-17T10:37:30.259Z,99.99
2019-05-17T10:38:30.039Z,99.99
2019-05-17T10:39:29.824Z,99.99
2019-05-17T10:40:29.894Z,99.99
2019-05-17T10:41:30.149Z,99.99
2019-05-17T10:42:30.656Z,99.99
2019-05-17T10:43:29.875Z,99.99
2019-05-17T10:44:43.638Z,99.99
2019-05-17T10:45:30.512Z,99.99
2019-05-17T10:46:30.046Z,99.99
2019-05-17T10:47:30.122Z,99.99
2019-05-17T10:48:30.081Z,99.99
2019-05-17T10:49:29.487Z,99.99
2019-05-17T10:50:29.764Z,99.99
2019-05-17T10:51:29.583Z,99.99
2019-05-17T10:52:30.010Z,99.99
2019-05-17T10:53:29.747Z,99.99
2019-05-17T10:54:30.105Z,99.99
2019-05-17T10:55:30.164Z,99.99
2019-05-17T10:56:28.145Z,99.99
2019-05-17T10:57:30.286Z,99.99
2019-05-17T10:58:29.650Z,99.99
2019-05-17T10:59:27.918Z,99.99
2019-05-17T11:00:30.143Z,99.99
2019-05-17T11:01:30.493Z,99.99
2019-05-17T11:02:30.175Z,99.99
2019-05-17T11:03:29.654Z,99.99
2019-05-17T11:04:27.529Z,99.99
2019-05-17T11:05:27.449Z,99.99
2019-05-17T11:06:27.372Z,99.99
2019-05-17T11:07:27.298Z,99.99
2019-05-17T11:08:27.221Z,99.99
2019-05-17T11:09:27.142Z,99.99
2019-05-17T11:10:27.064Z,99.99
2019-05-17T11:11:26.989Z,99.99
2019-05-17T11:12:26.907Z,99.99
2019-05-17T11:13:26.836Z,99.99
2019-05-17T11:14:26.759Z,99.99
2019-05-17T11:15:26.683Z,99.99
2019-05-17T11:16:26.609Z,99.99
2019-05-17T11:17:26.526Z,99.99
2019-05-17T11:18:26.467Z,99.99
2019-05-17T11:19:26.374Z,99.99
2019-05-17T11:20:26.302Z,99.99
2019-05-17T11:21:26.224Z,99.99
2019-05-17T11:22:26.145Z,99.99
2019-05-17T11:23:26.070Z,99.99
2019-05-17T11:24:25.995Z,99.99
2019-05-17T11:25:25.921Z,99.99
2019-05-17T11:26:25.841Z,99.99
2019-05-17T11:27:25.763Z,99.82
2019-05-17T11:28:25.687Z,99.99
2019-05-17T11:29:25.616Z,99.99
2019-05-17T11:30:25.543Z,99.99
2019-05-17T11:31:25.462Z,99.99
2019-05-17T11:32:25.384Z,99.99
2019-05-17T11:33:25.309Z,99.99
2019-05-17T11:34:25.715Z,99.99
2019-05-17T11:35:25.152Z,99.99
2019-05-17T11:36:25.079Z,99.99
2019-05-17T11:37:24.999Z,95.70
2019-05-17T11:38:24.925Z,96.66
2019-05-17T11:39:24.852Z,99.82
2019-05-17T11:40:24.778Z,95.65
2019-05-17T11:41:24.704Z,98.33
2019-05-17T11:42:24.623Z,99.99
2019-05-17T11:43:24.546Z,99.99
2019-05-17T11:44:24.473Z,98.38
2019-05-17T11:45:28.117Z,98.33
2019-05-17T11:46:35.746Z,99.87
2019-05-17T11:47:24.245Z,99.99
2019-05-17T11:48:24.167Z,99.99
2019-05-17T11:49:24.093Z,99.48
2019-05-17T11:50:24.022Z,95.65
2019-05-17T11:51:25.696Z,99.99
2019-05-17T11:52:23.922Z,99.99
2019-05-17T11:53:23.790Z,99.87
2019-05-17T11:54:23.718Z,89.61
2019-05-17T11:55:23.641Z,94.40
2019-05-17T11:56:23.570Z,95.31
2019-05-17T11:57:23.494Z,97.04
2019-05-17T11:58:23.423Z,84.86
2019-05-17T11:59:23.347Z,89.27
2019-05-17T12:00:23.286Z,87.59
2019-05-17T12:01:23.204Z,87.01
2019-05-17T12:02:23.131Z,83.47
2019-05-17T12:03:23.055Z,82.21
2019-05-17T12:04:22.994Z,84.47
2019-05-17T12:05:22.921Z,79.38
2019-05-17T12:06:22.858Z,75.00
2019-05-17T12:07:22.787Z,77.15
2019-05-17T12:08:22.721Z,77.44
2019-05-17T12:09:36.485Z,73.79
2019-05-17T12:10:22.715Z,71.14
2019-05-17T12:11:22.524Z,74.60
2019-05-17T12:12:22.459Z,69.92
2019-05-17T12:13:22.393Z,67.51
2019-05-17T12:14:22.330Z,66.10
2019-05-17T12:15:22.271Z,65.91
2019-05-17T12:16:22.207Z,66.42
2019-05-17T12:17:22.145Z,64.31
2019-05-17T12:18:22.087Z,62.67
2019-05-17T12:19:22.025Z,61.45
2019-05-17T12:20:21.970Z,59.45
2019-05-17T12:21:21.904Z,59.07
2019-05-17T12:22:21.841Z,58.33
2019-05-17T12:23:21.785Z,58.42
2019-05-17T12:24:21.725Z,57.27
2019-05-17T12:25:21.668Z,56.72
2019-05-17T12:26:21.608Z,56.56
2019-05-17T12:27:21.553Z,57.23
2019-05-17T12:28:21.490Z,55.52
2019-05-17T12:29:21.433Z,54.36
2019-05-17T12:30:21.379Z,52.79
2019-05-17T12:31:21.322Z,53.85
2019-05-17T12:32:21.264Z,55.36
2019-05-17T12:33:21.204Z,56.52
2019-05-17T12:34:21.145Z,56.91
2019-05-17T12:35:21.091Z,56.40
2019-05-17T12:36:21.073Z,56.57
2019-05-17T12:37:20.969Z,58.47
2019-05-17T12:38:20.907Z,59.33
2019-05-17T12:39:20.851Z,57.05
2019-05-17T12:40:20.797Z,56.88
2019-05-17T12:41:20.727Z,56.84
2019-05-17T12:42:20.663Z,54.75
2019-05-17T12:43:20.606Z,54.27
2019-05-17T12:44:20.594Z,54.14
2019-05-17T12:45:20.485Z,54.46
2019-05-17T12:46:20.431Z,52.94
2019-05-17T12:47:20.368Z,52.67
2019-05-17T12:48:20.305Z,52.31
2019-05-17T12:49:20.245Z,52.29
2019-05-17T12:50:20.240Z,53.13
2019-05-17T12:51:20.122Z,53.39
2019-05-17T12:52:20.065Z,53.27
2019-05-17T12:53:20.008Z,54.11
2019-05-17T12:54:19.936Z,55.34
2019-05-17T12:55:19.879Z,55.59
2019-05-17T12:56:19.817Z,53.69